sensor_id;sensor_type;location;lat;lon;timestamp;temperature;humidity
26952;DHT22;14507;52.418;13.398;2023-10-13T00:01:56;13.80;99.90
26952;DHT22;14507;52.418;13.398;2023-10-13T00:04:28;13.90;99.90
26952;DHT22;14507;52.418;13.398;2023-10-13T00:06:55;13.90;99.90
26952;DHT22;14507;52.418;13.398;2023-10-13T00:09:26;13.90;99.90
26952;DHT22;14507;52.418;13.398;2023-10-13T00:11:57;13.90;99.90
26952;DHT22;14507;52.418;13.398;2023-10-13T00:14:23;13.90;99.90
26952;DHT22;14507;52.418;13.398;2023-10-13T00:16:57;13.80;99.90
26952;DHT22;14507;52.418;13.398;2023-10-13T00:19:45;13.90;99.90
26952;DHT22;14507;52.418;13.398;2023-10-13T00:22:14;13.90;99.90
26952;DHT22;14507;52.418;13.398;2023-10-13T00:24:43;13.80;99.90
26952;DHT22;14507;52.418;13.398;2023-10-13T00:29:54;13.90;99.90
26952;DHT22;14507;52.418;13.398;2023-10-13T00:32:39;13.90;99.90
26952;DHT22;14507;52.418;13.398;2023-10-13T00:35:09;13.80;99.90
26952;DHT22;14507;52.418;13.398;2023-10-13T00:37:36;13.80;99.90
26952;DHT22;14507;52.418;13.398;2023-10-13T00:40:11;13.80;99.90
26952;DHT22;14507;52.418;13.398;2023-10-13T00:42:52;13.80;99.90
26952;DHT22;14507;52.418;13.398;2023-10-13T00:45:18;13.80;99.90
26952;DHT22;14507;52.418;13.398;2023-10-13T00:47:45;13.80;99.90
26952;DHT22;14507;52.418;13.398;2023-10-13T00:50:15;13.80;99.90
26952;DHT22;14507;52.418;13.398;2023-10-13T00:52:43;13.80;99.90
26952;DHT22;14507;52.418;13.398;2023-10-13T00:55:13;13.80;99.90
26952;DHT22;14507;52.418;13.398;2023-10-13T00:57:40;13.80;99.90
26952;DHT22;14507;52.418;13.398;2023-10-13T01:00:06;13.80;99.90
26952;DHT22;14507;52.418;13.398;2023-10-13T01:02:58;13.90;99.90
26952;DHT22;14507;52.418;13.398;2023-10-13T01:05:33;13.80;99.90
26952;DHT22;14507;52.418;13.398;2023-10-13T01:08:02;13.80;99.90
26952;DHT22;14507;52.418;13.398;2023-10-13T01:10:28;13.70;99.90
26952;DHT22;14507;52.418;13.398;2023-10-13T01:12:58;13.80;99.90
26952;DHT22;14507;52.418;13.398;2023-10-13T01:15:27;13.80;99.90
26952;DHT22;14507;52.418;13.398;2023-10-13T01:18:11;13.80;99.90
26952;DHT22;14507;52.418;13.398;2023-10-13T01:20:42;13.80;99.90
26952;DHT22;14507;52.418;13.398;2023-10-13T01:23:12;13.80;99.90
26952;DHT22;14507;52.418;13.398;2023-10-13T01:25:45;13.70;99.90
26952;DHT22;14507;52.418;13.398;2023-10-13T01:28:11;13.80;99.90
26952;DHT22;14507;52.418;13.398;2023-10-13T01:30:45;13.80;99.90
26952;DHT22;14507;52.418;13.398;2023-10-13T01:33:18;13.80;99.90
26952;DHT22;14507;52.418;13.398;2023-10-13T01:35:52;13.80;99.90
26952;DHT22;14507;52.418;13.398;2023-10-13T01:38:20;13.80;99.90
26952;DHT22;14507;52.418;13.398;2023-10-13T01:40:46;13.80;99.90
26952;DHT22;14507;52.418;13.398;2023-10-13T01:43:16;13.80;99.90
26952;DHT22;14507;52.418;13.398;2023-10-13T01:45:43;13.80;99.90
26952;DHT22;14507;52.418;13.398;2023-10-13T01:48:15;13.80;99.90
26952;DHT22;14507;52.418;13.398;2023-10-13T01:50:45;13.80;99.90
26952;DHT22;14507;52.418;13.398;2023-10-13T01:53:13;13.80;99.90
26952;DHT22;14507;52.418;13.398;2023-10-13T01:55:43;13.80;99.90
26952;DHT22;14507;52.418;13.398;2023-10-13T01:58:15;13.80;99.90
26952;DHT22;14507;52.418;13.398;2023-10-13T02:00:45;13.80;99.90
26952;DHT22;14507;52.418;13.398;2023-10-13T02:03:12;13.80;99.90
26952;DHT22;14507;52.418;13.398;2023-10-13T02:05:44;13.80;99.90
26952;DHT22;14507;52.418;13.398;2023-10-13T02:08:17;13.80;99.90
26952;DHT22;14507;52.418;13.398;2023-10-13T02:10:57;13.80;99.90
26952;DHT22;14507;52.418;13.398;2023-10-13T02:13:24;13.80;99.90
26952;DHT22;14507;52.418;13.398;2023-10-13T02:15:55;13.80;99.90
26952;DHT22;14507;52.418;13.398;2023-10-13T02:18:22;13.80;99.90
26952;DHT22;14507;52.418;13.398;2023-10-13T02:21:03;13.80;99.90
26952;DHT22;14507;52.418;13.398;2023-10-13T02:23:38;13.80;99.90
26952;DHT22;14507;52.418;13.398;2023-10-13T02:26:09;13.70;99.90
26952;DHT22;14507;52.418;13.398;2023-10-13T02:28:46;13.70;99.90
26952;DHT22;14507;52.418;13.398;2023-10-13T02:31:17;13.70;99.90
26952;DHT22;14507;52.418;13.398;2023-10-13T02:33:44;13.70;99.90
26952;DHT22;14507;52.418;13.398;2023-10-13T02:36:10;13.70;99.90
26952;DHT22;14507;52.418;13.398;2023-10-13T02:38:47;13.70;99.90
26952;DHT22;14507;52.418;13.398;2023-10-13T02:41:19;13.70;99.90
26952;DHT22;14507;52.418;13.398;2023-10-13T02:43:51;13.70;99.90
26952;DHT22;14507;52.418;13.398;2023-10-13T02:46:18;13.70;99.90
26952;DHT22;14507;52.418;13.398;2023-10-13T02:48:47;13.70;99.90
26952;DHT22;14507;52.418;13.398;2023-10-13T02:51:21;13.70;99.90
26952;DHT22;14507;52.418;13.398;2023-10-13T02:53:53;13.70;99.90
26952;DHT22;14507;52.418;13.398;2023-10-13T02:56:19;13.80;99.90
26952;DHT22;14507;52.418;13.398;2023-10-13T02:58:52;13.70;99.90
26952;DHT22;14507;52.418;13.398;2023-10-13T03:01:35;13.80;99.90
26952;DHT22;14507;52.418;13.398;2023-10-13T03:04:02;13.80;99.90
26952;DHT22;14507;52.418;13.398;2023-10-13T03:06:38;13.80;99.90
26952;DHT22;14507;52.418;13.398;2023-10-13T03:09:08;13.80;99.90
26952;DHT22;14507;52.418;13.398;2023-10-13T03:11:51;13.80;99.90
26952;DHT22;14507;52.418;13.398;2023-10-13T03:14:18;13.80;99.90
26952;DHT22;14507;52.418;13.398;2023-10-13T03:17:01;13.80;99.90
26952;DHT22;14507;52.418;13.398;2023-10-13T03:19:31;13.80;99.90
26952;DHT22;14507;52.418;13.398;2023-10-13T03:22:04;13.80;99.90
26952;DHT22;14507;52.418;13.398;2023-10-13T03:24:53;13.80;99.90
26952;DHT22;14507;52.418;13.398;2023-10-13T03:27:19;13.80;99.90
26952;DHT22;14507;52.418;13.398;2023-10-13T03:29:49;13.90;99.90
26952;DHT22;14507;52.418;13.398;2023-10-13T03:32:21;13.90;99.90
26952;DHT22;14507;52.418;13.398;2023-10-13T03:34:51;13.80;99.90
26952;DHT22;14507;52.418;13.398;2023-10-13T03:37:23;13.80;99.90
26952;DHT22;14507;52.418;13.398;2023-10-13T03:40:04;13.80;99.90
26952;DHT22;14507;52.418;13.398;2023-10-13T03:45:46;13.80;99.90
26952;DHT22;14507;52.418;13.398;2023-10-13T03:48:18;13.80;99.90
26952;DHT22;14507;52.418;13.398;2023-10-13T03:50:52;13.80;99.90
26952;DHT22;14507;52.418;13.398;2023-10-13T03:53:37;13.80;99.90
26952;DHT22;14507;52.418;13.398;2023-10-13T03:56:18;13.80;99.90
26952;DHT22;14507;52.418;13.398;2023-10-13T03:58:52;13.90;99.90
26952;DHT22;14507;52.418;13.398;2023-10-13T04:01:20;13.80;99.90
26952;DHT22;14507;52.418;13.398;2023-10-13T04:03:56;13.80;99.90
26952;DHT22;14507;52.418;13.398;2023-10-13T04:06:23;13.90;99.90
26952;DHT22;14507;52.418;13.398;2023-10-13T04:09:09;13.80;99.90
26952;DHT22;14507;52.418;13.398;2023-10-13T04:11:53;13.90;99.90
26952;DHT22;14507;52.418;13.398;2023-10-13T04:17:16;13.90;99.90
26952;DHT22;14507;52.418;13.398;2023-10-13T04:19:48;14.00;99.90
26952;DHT22;14507;52.418;13.398;2023-10-13T04:22:39;14.00;99.90
26952;DHT22;14507;52.418;13.398;2023-10-13T04:25:25;14.00;99.90
26952;DHT22;14507;52.418;13.398;2023-10-13T04:28:01;14.00;99.90
26952;DHT22;14507;52.418;13.398;2023-10-13T04:30:42;14.00;99.90
26952;DHT22;14507;52.418;13.398;2023-10-13T04:33:32;14.00;99.90
26952;DHT22;14507;52.418;13.398;2023-10-13T04:36:12;14.00;99.90
26952;DHT22;14507;52.418;13.398;2023-10-13T04:38:55;14.00;99.90
26952;DHT22;14507;52.418;13.398;2023-10-13T04:41:34;14.00;99.90
26952;DHT22;14507;52.418;13.398;2023-10-13T04:44:23;14.10;99.90
26952;DHT22;14507;52.418;13.398;2023-10-13T04:46:56;14.10;99.90
26952;DHT22;14507;52.418;13.398;2023-10-13T04:49:29;14.10;99.90
26952;DHT22;14507;52.418;13.398;2023-10-13T04:52:03;14.10;99.90
26952;DHT22;14507;52.418;13.398;2023-10-13T04:54:41;14.10;99.90
26952;DHT22;14507;52.418;13.398;2023-10-13T04:57:14;14.10;99.90
26952;DHT22;14507;52.418;13.398;2023-10-13T04:59:47;14.10;99.90
26952;DHT22;14507;52.418;13.398;2023-10-13T05:02:32;14.10;99.90
26952;DHT22;14507;52.418;13.398;2023-10-13T05:05:09;14.10;99.90
26952;DHT22;14507;52.418;13.398;2023-10-13T05:07:45;14.10;99.90
26952;DHT22;14507;52.418;13.398;2023-10-13T05:10:30;14.10;99.90
26952;DHT22;14507;52.418;13.398;2023-10-13T05:13:15;14.10;99.90
26952;DHT22;14507;52.418;13.398;2023-10-13T05:16:00;14.10;99.90
26952;DHT22;14507;52.418;13.398;2023-10-13T05:18:44;14.10;99.90
26952;DHT22;14507;52.418;13.398;2023-10-13T05:21:29;14.20;99.90
26952;DHT22;14507;52.418;13.398;2023-10-13T05:24:13;14.20;99.90
26952;DHT22;14507;52.418;13.398;2023-10-13T05:26:57;14.20;99.90
26952;DHT22;14507;52.418;13.398;2023-10-13T05:29:42;14.20;99.90
26952;DHT22;14507;52.418;13.398;2023-10-13T05:32:28;14.20;99.90
26952;DHT22;14507;52.418;13.398;2023-10-13T05:35:13;14.20;99.90
26952;DHT22;14507;52.418;13.398;2023-10-13T05:37:57;14.20;99.90
26952;DHT22;14507;52.418;13.398;2023-10-13T05:40:56;14.20;99.90
26952;DHT22;14507;52.418;13.398;2023-10-13T05:43:40;14.30;99.90
26952;DHT22;14507;52.418;13.398;2023-10-13T05:46:24;14.30;99.90
26952;DHT22;14507;52.418;13.398;2023-10-13T05:48:50;14.30;99.90
26952;DHT22;14507;52.418;13.398;2023-10-13T05:51:26;14.30;99.90
26952;DHT22;14507;52.418;13.398;2023-10-13T05:54:04;14.30;99.90
26952;DHT22;14507;52.418;13.398;2023-10-13T05:56:43;14.40;99.90
26952;DHT22;14507;52.418;13.398;2023-10-13T05:59:28;14.40;99.90
26952;DHT22;14507;52.418;13.398;2023-10-13T06:02:17;14.40;99.90
26952;DHT22;14507;52.418;13.398;2023-10-13T06:05:05;14.50;99.90
26952;DHT22;14507;52.418;13.398;2023-10-13T06:07:51;14.50;99.90
26952;DHT22;14507;52.418;13.398;2023-10-13T06:10:35;14.50;99.90
26952;DHT22;14507;52.418;13.398;2023-10-13T06:13:20;14.60;99.90
26952;DHT22;14507;52.418;13.398;2023-10-13T06:18:54;14.70;99.90
26952;DHT22;14507;52.418;13.398;2023-10-13T06:21:39;14.90;99.90
26952;DHT22;14507;52.418;13.398;2023-10-13T06:24:23;15.00;99.90
26952;DHT22;14507;52.418;13.398;2023-10-13T06:27:07;15.20;99.90
26952;DHT22;14507;52.418;13.398;2023-10-13T06:29:56;15.50;99.90
26952;DHT22;14507;52.418;13.398;2023-10-13T06:32:23;16.50;99.90
26952;DHT22;14507;52.418;13.398;2023-10-13T06:34:52;16.80;99.90
26952;DHT22;14507;52.418;13.398;2023-10-13T06:37:23;16.80;99.90
26952;DHT22;14507;52.418;13.398;2023-10-13T06:39:54;16.60;99.90
26952;DHT22;14507;52.418;13.398;2023-10-13T06:42:40;16.50;99.90
26952;DHT22;14507;52.418;13.398;2023-10-13T06:45:08;16.50;99.90
26952;DHT22;14507;52.418;13.398;2023-10-13T06:47:35;16.60;99.90
26952;DHT22;14507;52.418;13.398;2023-10-13T06:50:12;17.30;99.90
26952;DHT22;14507;52.418;13.398;2023-10-13T06:52:45;18.30;99.90
26952;DHT22;14507;52.418;13.398;2023-10-13T06:55:15;18.80;99.90
26952;DHT22;14507;52.418;13.398;2023-10-13T06:57:49;19.00;99.90
26952;DHT22;14507;52.418;13.398;2023-10-13T07:00:17;18.80;99.90
26952;DHT22;14507;52.418;13.398;2023-10-13T07:02:55;18.60;99.90
26952;DHT22;14507;52.418;13.398;2023-10-13T07:05:37;18.40;99.90
26952;DHT22;14507;52.418;13.398;2023-10-13T07:08:09;18.20;99.90
26952;DHT22;14507;52.418;13.398;2023-10-13T07:10:35;18.00;99.90
26952;DHT22;14507;52.418;13.398;2023-10-13T07:13:14;17.90;99.90
26952;DHT22;14507;52.418;13.398;2023-10-13T07:15:40;17.90;99.90
26952;DHT22;14507;52.418;13.398;2023-10-13T07:18:16;17.80;99.90
26952;DHT22;14507;52.418;13.398;2023-10-13T07:20:44;17.60;99.90
26952;DHT22;14507;52.418;13.398;2023-10-13T07:23:11;17.40;99.90
26952;DHT22;14507;52.418;13.398;2023-10-13T07:25:52;17.30;99.90
26952;DHT22;14507;52.418;13.398;2023-10-13T07:28:20;17.20;99.90
26952;DHT22;14507;52.418;13.398;2023-10-13T07:30:46;17.10;99.90
26952;DHT22;14507;52.418;13.398;2023-10-13T07:33:20;17.00;99.90
26952;DHT22;14507;52.418;13.398;2023-10-13T07:35:46;17.00;99.90
26952;DHT22;14507;52.418;13.398;2023-10-13T07:38:16;17.00;99.90
26952;DHT22;14507;52.418;13.398;2023-10-13T07:40:43;17.00;99.90
26952;DHT22;14507;52.418;13.398;2023-10-13T07:43:16;17.00;99.90
26952;DHT22;14507;52.418;13.398;2023-10-13T07:45:46;17.00;99.90
26952;DHT22;14507;52.418;13.398;2023-10-13T07:48:16;17.00;99.90
26952;DHT22;14507;52.418;13.398;2023-10-13T07:53:45;17.00;99.90
26952;DHT22;14507;52.418;13.398;2023-10-13T07:56:14;17.00;99.90
26952;DHT22;14507;52.418;13.398;2023-10-13T07:58:45;17.10;99.90
26952;DHT22;14507;52.418;13.398;2023-10-13T08:01:26;17.20;99.90
26952;DHT22;14507;52.418;13.398;2023-10-13T08:03:52;17.30;99.90
26952;DHT22;14507;52.418;13.398;2023-10-13T08:06:30;17.60;99.90
26952;DHT22;14507;52.418;13.398;2023-10-13T08:08:56;17.40;99.90
26952;DHT22;14507;52.418;13.398;2023-10-13T08:11:33;17.40;99.90
26952;DHT22;14507;52.418;13.398;2023-10-13T08:14:06;17.40;99.90
26952;DHT22;14507;52.418;13.398;2023-10-13T08:16:43;17.40;99.90
26952;DHT22;14507;52.418;13.398;2023-10-13T08:19:24;17.40;99.90
26952;DHT22;14507;52.418;13.398;2023-10-13T08:21:54;17.40;99.90
26952;DHT22;14507;52.418;13.398;2023-10-13T08:24:25;17.40;99.90
26952;DHT22;14507;52.418;13.398;2023-10-13T08:26:55;17.60;99.90
26952;DHT22;14507;52.418;13.398;2023-10-13T08:29:42;17.70;99.90
26952;DHT22;14507;52.418;13.398;2023-10-13T08:32:34;17.90;99.90
26952;DHT22;14507;52.418;13.398;2023-10-13T08:35:20;18.00;99.90
26952;DHT22;14507;52.418;13.398;2023-10-13T08:38:00;18.00;99.90
26952;DHT22;14507;52.418;13.398;2023-10-13T08:40:30;18.10;99.90
26952;DHT22;14507;52.418;13.398;2023-10-13T08:43:12;18.10;99.90
26952;DHT22;14507;52.418;13.398;2023-10-13T08:45:40;18.00;99.90
26952;DHT22;14507;52.418;13.398;2023-10-13T08:48:06;18.00;99.90
26952;DHT22;14507;52.418;13.398;2023-10-13T08:50:51;18.00;99.90
26952;DHT22;14507;52.418;13.398;2023-10-13T08:53:25;18.00;99.90
26952;DHT22;14507;52.418;13.398;2023-10-13T08:56:06;18.00;99.90
26952;DHT22;14507;52.418;13.398;2023-10-13T09:04:28;17.90;99.90
26952;DHT22;14507;52.418;13.398;2023-10-13T09:07:01;17.90;99.90
26952;DHT22;14507;52.418;13.398;2023-10-13T09:09:53;17.90;99.90
26952;DHT22;14507;52.418;13.398;2023-10-13T09:12:23;17.90;99.90
26952;DHT22;14507;52.418;13.398;2023-10-13T09:15:00;17.90;99.90
26952;DHT22;14507;52.418;13.398;2023-10-13T09:17:49;17.90;99.90
26952;DHT22;14507;52.418;13.398;2023-10-13T09:20:16;18.00;99.90
26952;DHT22;14507;52.418;13.398;2023-10-13T09:22:48;18.00;99.90
26952;DHT22;14507;52.418;13.398;2023-10-13T09:25:36;18.00;99.90
26952;DHT22;14507;52.418;13.398;2023-10-13T09:28:03;18.00;99.90
26952;DHT22;14507;52.418;13.398;2023-10-13T09:30:43;18.00;99.90
26952;DHT22;14507;52.418;13.398;2023-10-13T09:33:08;18.00;99.90
26952;DHT22;14507;52.418;13.398;2023-10-13T09:35:34;18.00;99.90
26952;DHT22;14507;52.418;13.398;2023-10-13T09:38:03;18.00;99.90
26952;DHT22;14507;52.418;13.398;2023-10-13T09:40:29;18.00;99.90
26952;DHT22;14507;52.418;13.398;2023-10-13T09:42:58;18.00;99.90
26952;DHT22;14507;52.418;13.398;2023-10-13T09:45:34;17.90;99.90
26952;DHT22;14507;52.418;13.398;2023-10-13T09:48:12;17.90;99.90
26952;DHT22;14507;52.418;13.398;2023-10-13T09:50:52;17.90;99.90
26952;DHT22;14507;52.418;13.398;2023-10-13T09:53:22;17.80;99.90
26952;DHT22;14507;52.418;13.398;2023-10-13T09:55:55;17.80;99.90
26952;DHT22;14507;52.418;13.398;2023-10-13T09:58:28;17.80;99.90
26952;DHT22;14507;52.418;13.398;2023-10-13T10:01:02;17.80;99.90
26952;DHT22;14507;52.418;13.398;2023-10-13T10:03:45;17.80;99.90
26952;DHT22;14507;52.418;13.398;2023-10-13T10:06:23;17.80;99.90
26952;DHT22;14507;52.418;13.398;2023-10-13T10:09:10;17.90;99.90
26952;DHT22;14507;52.418;13.398;2023-10-13T10:14:44;18.00;99.90
26952;DHT22;14507;52.418;13.398;2023-10-13T10:17:11;18.10;99.90
26952;DHT22;14507;52.418;13.398;2023-10-13T10:19:52;18.20;99.90
26952;DHT22;14507;52.418;13.398;2023-10-13T10:22:33;18.20;99.90
26952;DHT22;14507;52.418;13.398;2023-10-13T10:25:03;18.30;99.90
26952;DHT22;14507;52.418;13.398;2023-10-13T10:27:55;18.30;99.90
26952;DHT22;14507;52.418;13.398;2023-10-13T10:30:26;18.30;99.90
26952;DHT22;14507;52.418;13.398;2023-10-13T10:32:57;18.30;99.90
26952;DHT22;14507;52.418;13.398;2023-10-13T10:35:25;18.30;99.90
26952;DHT22;14507;52.418;13.398;2023-10-13T10:38:17;18.30;99.90
26952;DHT22;14507;52.418;13.398;2023-10-13T10:43:25;18.30;99.90
26952;DHT22;14507;52.418;13.398;2023-10-13T10:45:52;18.30;99.90
26952;DHT22;14507;52.418;13.398;2023-10-13T10:48:18;18.20;99.90
26952;DHT22;14507;52.418;13.398;2023-10-13T10:51:04;18.20;99.90
26952;DHT22;14507;52.418;13.398;2023-10-13T10:53:39;18.20;99.90
26952;DHT22;14507;52.418;13.398;2023-10-13T10:56:12;18.20;99.90
26952;DHT22;14507;52.418;13.398;2023-10-13T10:58:54;18.20;99.90
26952;DHT22;14507;52.418;13.398;2023-10-13T11:01:26;18.20;99.90
26952;DHT22;14507;52.418;13.398;2023-10-13T11:04:13;18.20;99.90
26952;DHT22;14507;52.418;13.398;2023-10-13T11:06:55;18.20;99.90
26952;DHT22;14507;52.418;13.398;2023-10-13T11:14:32;18.30;99.90
26952;DHT22;14507;52.418;13.398;2023-10-13T11:16:58;18.30;99.90
26952;DHT22;14507;52.418;13.398;2023-10-13T11:19:37;18.40;99.90
26952;DHT22;14507;52.418;13.398;2023-10-13T11:22:16;18.40;99.90
26952;DHT22;14507;52.418;13.398;2023-10-13T11:25:08;18.40;99.90
26952;DHT22;14507;52.418;13.398;2023-10-13T11:27:37;18.40;99.90
26952;DHT22;14507;52.418;13.398;2023-10-13T11:30:11;18.50;99.90
26952;DHT22;14507;52.418;13.398;2023-10-13T11:32:43;18.50;99.90
26952;DHT22;14507;52.418;13.398;2023-10-13T11:35:09;18.50;99.90
26952;DHT22;14507;52.418;13.398;2023-10-13T11:37:49;18.50;99.90
26952;DHT22;14507;52.418;13.398;2023-10-13T11:40:24;18.50;99.90
26952;DHT22;14507;52.418;13.398;2023-10-13T11:43:09;18.50;99.90
26952;DHT22;14507;52.418;13.398;2023-10-13T11:45:50;18.50;99.90
26952;DHT22;14507;52.418;13.398;2023-10-13T11:48:39;18.50;99.90
26952;DHT22;14507;52.418;13.398;2023-10-13T11:51:08;18.50;99.90
26952;DHT22;14507;52.418;13.398;2023-10-13T11:53:37;18.50;99.90
26952;DHT22;14507;52.418;13.398;2023-10-13T11:56:04;18.60;99.90
26952;DHT22;14507;52.418;13.398;2023-10-13T11:58:37;18.60;99.90
26952;DHT22;14507;52.418;13.398;2023-10-13T12:01:03;18.70;99.90
26952;DHT22;14507;52.418;13.398;2023-10-13T12:03:48;18.70;99.90
26952;DHT22;14507;52.418;13.398;2023-10-13T12:06:49;18.70;99.90
26952;DHT22;14507;52.418;13.398;2023-10-13T12:09:28;18.80;99.90
26952;DHT22;14507;52.418;13.398;2023-10-13T12:11:54;18.80;99.90
26952;DHT22;14507;52.418;13.398;2023-10-13T12:14:20;18.80;99.90
26952;DHT22;14507;52.418;13.398;2023-10-13T12:17:02;18.90;99.90
26952;DHT22;14507;52.418;13.398;2023-10-13T12:19:36;18.90;99.90
26952;DHT22;14507;52.418;13.398;2023-10-13T12:22:04;18.90;99.90
26952;DHT22;14507;52.418;13.398;2023-10-13T12:24:42;19.00;99.90
26952;DHT22;14507;52.418;13.398;2023-10-13T12:27:08;19.10;99.90
26952;DHT22;14507;52.418;13.398;2023-10-13T12:29:50;19.10;99.90
26952;DHT22;14507;52.418;13.398;2023-10-13T12:32:18;19.20;99.90
26952;DHT22;14507;52.418;13.398;2023-10-13T12:34:48;19.30;99.90
26952;DHT22;14507;52.418;13.398;2023-10-13T12:37:34;19.30;99.90
26952;DHT22;14507;52.418;13.398;2023-10-13T12:40:08;19.40;99.90
26952;DHT22;14507;52.418;13.398;2023-10-13T12:42:53;19.40;99.90
26952;DHT22;14507;52.418;13.398;2023-10-13T12:45:40;19.40;99.90
26952;DHT22;14507;52.418;13.398;2023-10-13T12:48:25;19.50;99.90
26952;DHT22;14507;52.418;13.398;2023-10-13T12:51:09;19.50;99.90
26952;DHT22;14507;52.418;13.398;2023-10-13T12:53:50;19.60;99.90
26952;DHT22;14507;52.418;13.398;2023-10-13T12:56:17;19.60;99.90
26952;DHT22;14507;52.418;13.398;2023-10-13T12:58:46;19.70;99.90
26952;DHT22;14507;52.418;13.398;2023-10-13T13:01:22;19.70;99.90
26952;DHT22;14507;52.418;13.398;2023-10-13T13:03:48;19.70;99.90
26952;DHT22;14507;52.418;13.398;2023-10-13T13:06:19;19.80;99.90
26952;DHT22;14507;52.418;13.398;2023-10-13T13:08:54;19.80;99.90
26952;DHT22;14507;52.418;13.398;2023-10-13T13:11:20;19.90;99.90
26952;DHT22;14507;52.418;13.398;2023-10-13T13:13:46;19.90;99.90
26952;DHT22;14507;52.418;13.398;2023-10-13T13:16:15;19.90;99.90
26952;DHT22;14507;52.418;13.398;2023-10-13T13:18:44;20.00;99.90
26952;DHT22;14507;52.418;13.398;2023-10-13T13:21:10;20.10;99.90
26952;DHT22;14507;52.418;13.398;2023-10-13T13:23:46;20.20;99.90
26952;DHT22;14507;52.418;13.398;2023-10-13T13:26:11;20.30;99.90
26952;DHT22;14507;52.418;13.398;2023-10-13T13:28:47;20.30;99.90
26952;DHT22;14507;52.418;13.398;2023-10-13T13:31:19;20.40;99.90
26952;DHT22;14507;52.418;13.398;2023-10-13T13:33:48;20.50;99.90
26952;DHT22;14507;52.418;13.398;2023-10-13T13:36:15;20.60;99.90
26952;DHT22;14507;52.418;13.398;2023-10-13T13:38:41;20.60;99.90
26952;DHT22;14507;52.418;13.398;2023-10-13T13:41:14;20.60;99.90
26952;DHT22;14507;52.418;13.398;2023-10-13T13:43:46;20.60;99.90
26952;DHT22;14507;52.418;13.398;2023-10-13T13:46:22;20.70;99.90
26952;DHT22;14507;52.418;13.398;2023-10-13T13:48:53;20.70;99.90
26952;DHT22;14507;52.418;13.398;2023-10-13T13:51:27;20.70;99.90
26952;DHT22;14507;52.418;13.398;2023-10-13T13:53:55;20.70;99.90
26952;DHT22;14507;52.418;13.398;2023-10-13T13:56:21;20.80;99.90
26952;DHT22;14507;52.418;13.398;2023-10-13T13:58:48;20.80;99.90
26952;DHT22;14507;52.418;13.398;2023-10-13T14:01:16;20.90;99.90
26952;DHT22;14507;52.418;13.398;2023-10-13T14:03:49;20.90;99.90
26952;DHT22;14507;52.418;13.398;2023-10-13T14:06:23;21.00;99.90
26952;DHT22;14507;52.418;13.398;2023-10-13T14:08:55;21.10;99.90
26952;DHT22;14507;52.418;13.398;2023-10-13T14:11:26;21.20;99.90
26952;DHT22;14507;52.418;13.398;2023-10-13T14:14:08;21.30;99.90
26952;DHT22;14507;52.418;13.398;2023-10-13T14:16:53;21.30;99.90
26952;DHT22;14507;52.418;13.398;2023-10-13T14:19:19;21.30;99.90
26952;DHT22;14507;52.418;13.398;2023-10-13T14:21:54;21.30;99.90
26952;DHT22;14507;52.418;13.398;2023-10-13T14:24:21;21.30;99.90
26952;DHT22;14507;52.418;13.398;2023-10-13T14:27:09;21.30;99.90
26952;DHT22;14507;52.418;13.398;2023-10-13T14:29:38;21.30;99.90
26952;DHT22;14507;52.418;13.398;2023-10-13T14:32:12;21.30;99.90
26952;DHT22;14507;52.418;13.398;2023-10-13T14:34:43;21.30;99.90
26952;DHT22;14507;52.418;13.398;2023-10-13T14:37:09;21.40;99.90
26952;DHT22;14507;52.418;13.398;2023-10-13T14:39:39;21.40;99.90
26952;DHT22;14507;52.418;13.398;2023-10-13T14:42:04;21.40;99.90
26952;DHT22;14507;52.418;13.398;2023-10-13T14:44:34;21.40;99.90
26952;DHT22;14507;52.418;13.398;2023-10-13T14:47:01;21.40;99.90
26952;DHT22;14507;52.418;13.398;2023-10-13T14:49:27;21.40;99.90
26952;DHT22;14507;52.418;13.398;2023-10-13T14:51:53;21.30;99.90
26952;DHT22;14507;52.418;13.398;2023-10-13T14:54:21;21.30;99.90
26952;DHT22;14507;52.418;13.398;2023-10-13T14:57:00;21.20;99.90
26952;DHT22;14507;52.418;13.398;2023-10-13T14:59:26;21.20;99.90
26952;DHT22;14507;52.418;13.398;2023-10-13T15:01:53;21.10;99.90
26952;DHT22;14507;52.418;13.398;2023-10-13T15:04:18;21.00;99.90
26952;DHT22;14507;52.418;13.398;2023-10-13T15:06:50;21.00;99.90
26952;DHT22;14507;52.418;13.398;2023-10-13T15:09:15;20.90;99.90
26952;DHT22;14507;52.418;13.398;2023-10-13T15:11:49;20.90;99.90
26952;DHT22;14507;52.418;13.398;2023-10-13T15:14:18;20.90;99.90
26952;DHT22;14507;52.418;13.398;2023-10-13T15:16:46;20.90;99.90
26952;DHT22;14507;52.418;13.398;2023-10-13T15:19:12;20.80;99.90
26952;DHT22;14507;52.418;13.398;2023-10-13T15:21:37;20.80;99.90
26952;DHT22;14507;52.418;13.398;2023-10-13T15:24:06;20.80;99.90
26952;DHT22;14507;52.418;13.398;2023-10-13T15:26:47;20.80;99.90
26952;DHT22;14507;52.418;13.398;2023-10-13T15:29:16;20.70;99.90
26952;DHT22;14507;52.418;13.398;2023-10-13T15:31:46;20.70;99.90
26952;DHT22;14507;52.418;13.398;2023-10-13T15:34:23;20.70;99.90
26952;DHT22;14507;52.418;13.398;2023-10-13T15:36:51;20.60;99.90
26952;DHT22;14507;52.418;13.398;2023-10-13T15:39:18;20.60;99.90
26952;DHT22;14507;52.418;13.398;2023-10-13T15:41:52;20.60;99.90
26952;DHT22;14507;52.418;13.398;2023-10-13T15:44:19;20.50;99.90
26952;DHT22;14507;52.418;13.398;2023-10-13T15:46:46;20.50;99.90
26952;DHT22;14507;52.418;13.398;2023-10-13T15:49:17;20.50;99.90
26952;DHT22;14507;52.418;13.398;2023-10-13T15:51:43;20.40;99.90
26952;DHT22;14507;52.418;13.398;2023-10-13T15:54:10;20.40;99.90
26952;DHT22;14507;52.418;13.398;2023-10-13T15:56:43;20.40;99.90
26952;DHT22;14507;52.418;13.398;2023-10-13T15:59:12;20.30;99.90
26952;DHT22;14507;52.418;13.398;2023-10-13T16:01:38;20.30;99.90
26952;DHT22;14507;52.418;13.398;2023-10-13T16:04:06;20.30;99.90
26952;DHT22;14507;52.418;13.398;2023-10-13T16:06:44;20.20;99.90
26952;DHT22;14507;52.418;13.398;2023-10-13T16:09:16;20.20;99.90
26952;DHT22;14507;52.418;13.398;2023-10-13T16:11:45;20.20;99.90
26952;DHT22;14507;52.418;13.398;2023-10-13T16:14:12;20.20;99.90
26952;DHT22;14507;52.418;13.398;2023-10-13T16:16:43;20.10;99.90
26952;DHT22;14507;52.418;13.398;2023-10-13T16:19:19;20.10;99.90
26952;DHT22;14507;52.418;13.398;2023-10-13T16:21:54;20.10;99.90
26952;DHT22;14507;52.418;13.398;2023-10-13T16:24:20;20.00;99.90
26952;DHT22;14507;52.418;13.398;2023-10-13T16:26:50;20.00;99.90
26952;DHT22;14507;52.418;13.398;2023-10-13T16:29:21;20.00;99.90